Time;durP1;ratioP1;P1;durP2;ratioP2;P2;SDS_P1;SDS_P2;PMS_P1;PMS_P2;Temp;Humidity;BMP_temperature;BMP_pressure;BME280_temperature;BME280_humidity;BME280_pressure;Samples;Min_cycle;Max_cycle;Signal;HPM_P1;HPM_P2
2022/11/25 00:00:17;;;;;;;5.53;2.55;;;2.50;82.80;;;;;;4954889;29;20280;-66
2022/11/25 00:02:44;;;;;;;5.60;3.05;;;2.50;82.20;;;;;;4955233;29;20213;-66
2022/11/25 00:05:12;;;;;;;3.15;2.33;;;2.40;82.50;;;;;;4954499;29;20290;-66
2022/11/25 00:07:39;;;;;;;4.00;2.65;;;2.40;82.80;;;;;;4954946;29;20206;-66
2022/11/25 00:10:08;;;;;;;7.15;4.03;;;2.40;83.20;;;;;;4954491;29;20225;-66
2022/11/25 00:12:35;;;;;;;5.05;2.83;;;2.30;83.30;;;;;;4954940;29;20194;-67
2022/11/25 00:15:02;;;;;;;6.68;3.20;;;2.30;83.50;;;;;;4954736;29;20245;-66
2022/11/25 00:17:31;;;;;;;5.00;3.50;;;2.30;84.10;;;;;;4954839;29;20224;-66
2022/11/25 00:20:00;;;;;;;4.75;3.13;;;2.30;84.20;;;;;;4954614;29;20186;-66
2022/11/25 00:22:27;;;;;;;5.82;3.22;;;2.30;84.50;;;;;;4954838;29;20649;-66
2022/11/25 00:24:54;;;;;;;8.73;4.78;;;2.20;82.80;;;;;;4954219;29;20581;-66
2022/11/25 00:27:22;;;;;;;4.78;2.90;;;2.10;81.80;;;;;;4954759;29;20194;-66
2022/11/25 00:29:49;;;;;;;6.00;2.80;;;2.10;81.10;;;;;;4954172;29;20554;-66
2022/11/25 00:32:16;;;;;;;4.57;2.83;;;2.00;81.10;;;;;;4954490;29;20194;-66
2022/11/25 00:34:45;;;;;;;4.90;2.47;;;2.00;81.30;;;;;;4954527;29;20197;-66
2022/11/25 00:37:12;;;;;;;4.75;2.60;;;1.90;81.60;;;;;;4954532;29;20194;-66
2022/11/25 00:39:39;;;;;;;3.40;2.38;;;1.90;81.80;;;;;;4954558;29;20229;-66
2022/11/25 00:44:51;;;;;;;4.93;3.33;;;1.80;82.00;;;;;;4953614;28;20228;-66
2022/11/25 00:47:20;;;;;;;5.15;3.08;;;1.70;82.50;;;;;;4954084;29;20190;-66
2022/11/25 00:49:52;;;;;;;4.10;2.38;;;1.70;82.90;;;;;;4954365;29;20229;-66
2022/11/25 00:52:21;;;;;;;9.00;4.05;;;1.70;82.70;;;;;;4954190;29;20649;-66
2022/11/25 00:54:49;;;;;;;7.72;3.47;;;1.70;83.10;;;;;;4954173;29;20257;-66
2022/11/25 00:57:17;;;;;;;8.52;4.18;;;1.70;83.40;;;;;;4954021;29;20196;-66
2022/11/25 00:59:45;;;;;;;4.35;3.10;;;1.70;83.20;;;;;;4953961;29;20247;-66
2022/11/25 01:02:13;;;;;;;9.02;2.95;;;1.70;82.70;;;;;;4953670;29;20201;-66
2022/11/25 01:04:41;;;;;;;7.07;3.65;;;1.70;83.30;;;;;;4953787;29;20230;-66
2022/11/25 01:07:09;;;;;;;6.38;3.70;;;1.60;82.80;;;;;;4953844;29;20190;-66
2022/11/25 01:09:37;;;;;;;5.38;3.35;;;1.70;83.20;;;;;;4954049;29;20204;-66
2022/11/25 01:12:05;;;;;;;4.50;3.05;;;1.70;83.20;;;;;;4953663;29;20198;-66
2022/11/25 01:14:33;;;;;;;4.85;3.10;;;1.70;82.20;;;;;;4953993;29;20193;-66
2022/11/25 01:17:00;;;;;;;4.07;3.00;;;1.70;81.60;;;;;;4953857;29;20233;-66
2022/11/25 01:19:28;;;;;;;5.43;2.80;;;1.70;81.80;;;;;;4953922;29;20197;-66
2022/11/25 01:21:55;;;;;;;4.18;2.40;;;1.70;81.80;;;;;;4953780;29;20253;-66
2022/11/25 01:24:25;;;;;;;4.60;2.65;;;1.70;82.20;;;;;;4953804;29;20189;-66
2022/11/25 01:26:55;;;;;;;5.88;2.50;;;1.70;82.20;;;;;;4953147;29;20217;-66
2022/11/25 01:29:22;;;;;;;6.10;2.67;;;1.70;82.40;;;;;;4953813;29;20652;-66
2022/11/25 01:31:50;;;;;;;6.35;3.13;;;1.60;82.80;;;;;;4953422;29;20735;-66
2022/11/25 01:34:19;;;;;;;6.97;4.05;;;1.70;83.10;;;;;;4953818;29;20213;-66
2022/11/25 01:36:47;;;;;;;8.52;4.18;;;1.70;83.90;;;;;;4953050;29;20257;-66
2022/11/25 01:39:18;;;;;;;4.35;2.80;;;1.80;84.20;;;;;;4953690;29;20236;-66
2022/11/25 01:41:47;;;;;;;5.05;2.60;;;1.70;83.50;;;;;;4953254;29;20190;-66
2022/11/25 01:44:16;;;;;;;4.65;3.10;;;1.70;82.90;;;;;;4953285;29;20201;-66
2022/11/25 01:46:58;;;;;;;5.95;3.10;;;1.70;82.80;;;;;;4953108;29;20570;-66
2022/11/25 01:49:38;;;;;;;3.72;2.47;;;1.70;83.40;;;;;;4953303;29;20210;-67
2022/11/25 01:52:13;;;;;;;4.15;3.03;;;1.70;83.70;;;;;;4934403;29;20195;-66
2022/11/25 01:54:48;;;;;;;7.32;1.80;;;1.80;84.10;;;;;;4938014;29;20185;-66
2022/11/25 01:57:25;;;;;;;5.13;2.33;;;1.80;84.10;;;;;;4956416;28;20200;-66
2022/11/25 01:59:56;;;;;;;4.00;2.17;;;1.80;84.00;;;;;;4957022;29;20225;-66
2022/11/25 02:02:23;;;;;;;5.72;3.15;;;1.80;83.70;;;;;;4957162;29;20202;-66
2022/11/25 02:04:51;;;;;;;5.03;2.63;;;1.90;84.00;;;;;;4956964;28;20257;-66
2022/11/25 02:07:28;;;;;;;5.60;2.65;;;1.90;83.60;;;;;;4957212;29;20203;-66
2022/11/25 02:09:57;;;;;;;9.13;2.58;;;1.90;82.80;;;;;;4956781;29;20617;-66
2022/11/25 02:12:28;;;;;;;7.90;3.72;;;1.90;82.50;;;;;;4957110;29;20687;-67
2022/11/25 02:14:56;;;;;;;11.00;4.82;;;1.80;82.60;;;;;;4956770;29;20205;-66
2022/11/25 02:17:24;;;;;;;6.10;2.63;;;1.70;83.10;;;;;;4957179;29;20190;-66
2022/11/25 02:20:00;;;;;;;4.13;2.10;;;1.70;83.20;;;;;;4956577;29;20189;-66
2022/11/25 02:22:37;;;;;;;4.40;2.53;;;1.70;83.70;;;;;;4956775;29;20196;-67
2022/11/25 02:25:16;;;;;;;3.55;1.80;;;1.70;83.60;;;;;;4956213;29;20671;-66
2022/11/25 02:27:46;;;;;;;4.20;2.17;;;1.80;84.00;;;;;;4956899;29;20204;-66
2022/11/25 02:30:13;;;;;;;4.15;1.92;;;1.80;84.00;;;;;;4956046;29;20194;-66
2022/11/25 02:32:44;;;;;;;5.30;2.03;;;1.80;83.70;;;;;;4956789;29;20197;-66
2022/11/25 02:35:33;;;;;;;5.32;2.90;;;1.80;83.60;;;;;;4956244;29;20193;-66
2022/11/25 02:38:06;;;;;;;4.03;2.67;;;1.80;83.60;;;;;;4956714;29;20252;-67
2022/11/25 02:40:41;;;;;;;3.75;2.70;;;1.80;83.70;;;;;;4955759;29;20551;-66
2022/11/25 02:43:09;;;;;;;3.55;2.65;;;1.90;84.50;;;;;;4956327;29;20225;-67
2022/11/25 02:45:47;;;;;;;4.78;2.83;;;1.90;84.70;;;;;;4956471;29;20748;-66
2022/11/25 02:48:15;;;;;;;5.88;2.88;;;2.00;85.10;;;;;;4956498;29;20193;-66
2022/11/25 02:50:42;;;;;;;3.42;2.30;;;2.00;85.40;;;;;;4956596;29;20229;-66
2022/11/25 02:53:09;;;;;;;4.10;2.30;;;2.00;84.90;;;;;;4956250;29;20289;-66
2022/11/25 02:55:38;;;;;;;4.65;2.75;;;2.10;85.00;;;;;;4956551;29;20739;-66
2022/11/25 02:58:05;;;;;;;3.33;1.88;;;2.10;84.30;;;;;;4956064;29;20197;-66
2022/11/25 03:00:33;;;;;;;4.10;2.60;;;2.10;84.10;;;;;;4944804;29;20194;-66
2022/11/25 03:03:01;;;;;;;4.40;2.45;;;2.10;83.70;;;;;;4955992;29;20190;-66
2022/11/25 03:05:28;;;;;;;5.63;2.45;;;2.00;83.30;;;;;;4956284;29;20221;-67
2022/11/25 03:07:56;;;;;;;4.43;2.55;;;2.00;83.40;;;;;;4954763;28;20189;-66
2022/11/25 03:10:24;;;;;;;4.07;2.65;;;1.90;83.10;;;;;;4956079;29;20197;-66
2022/11/25 03:12:53;;;;;;;5.88;2.70;;;1.90;83.80;;;;;;4956044;29;20193;-66
2022/11/25 03:15:21;;;;;;;6.40;2.70;;;1.80;84.00;;;;;;4955889;29;20594;-66
2022/11/25 03:17:48;;;;;;;5.50;3.13;;;1.90;84.70;;;;;;4956342;29;20193;-66
2022/11/25 03:20:15;;;;;;;4.30;3.10;;;1.90;84.50;;;;;;4956104;29;20194;-66
2022/11/25 03:22:43;;;;;;;5.00;2.25;;;1.90;84.50;;;;;;4955874;29;20205;-66
2022/11/25 03:25:11;;;;;;;3.50;1.95;;;1.90;84.10;;;;;;4955302;29;20194;-66
2022/11/25 03:27:40;;;;;;;3.70;2.38;;;1.80;83.80;;;;;;4955704;29;20209;-66
2022/11/25 03:30:13;;;;;;;4.90;2.17;;;1.80;84.10;;;;;;4955879;29;20194;-66
2022/11/25 03:32:40;;;;;;;3.55;2.13;;;1.90;84.60;;;;;;4955286;29;20721;-66
2022/11/25 03:35:09;;;;;;;2.90;1.80;;;1.90;84.40;;;;;;4955601;29;20186;-66
2022/11/25 03:37:37;;;;;;;4.75;2.22;;;2.00;84.10;;;;;;4955194;29;20197;-66
2022/11/25 03:40:06;;;;;;;3.28;2.00;;;2.00;84.50;;;;;;4955264;29;20190;-66
2022/11/25 03:42:33;;;;;;;3.85;1.67;;;2.00;84.80;;;;;;4955684;29;20503;-67
2022/11/25 03:45:01;;;;;;;3.88;1.73;;;2.00;84.70;;;;;;4955102;29;20285;-66
2022/11/25 03:47:30;;;;;;;3.28;1.50;;;2.00;84.90;;;;;;4955440;29;20550;-66
2022/11/25 03:49:57;;;;;;;2.80;1.95;;;2.10;85.10;;;;;;4954906;29;20213;-66
2022/11/25 03:52:24;;;;;;;2.60;1.65;;;2.10;85.10;;;;;;4955650;29;20261;-67
2022/11/25 03:54:51;;;;;;;9.93;1.52;;;2.10;85.20;;;;;;4955052;29;20280;-66
2022/11/25 03:57:19;;;;;;;3.25;1.40;;;2.00;85.40;;;;;;4955520;29;20264;-67
2022/11/25 03:59:46;;;;;;;9.10;3.10;;;2.10;85.60;;;;;;4954737;29;20197;-66
2022/11/25 04:02:13;;;;;;;3.33;1.60;;;2.10;85.40;;;;;;4955444;29;20196;-66
2022/11/25 04:04:42;;;;;;;2.80;1.55;;;2.10;85.50;;;;;;4954754;29;20237;-66
2022/11/25 04:07:10;;;;;;;2.85;1.67;;;2.10;85.70;;;;;;4955151;29;20232;-66
2022/11/25 04:09:37;;;;;;;3.20;2.05;;;2.00;85.20;;;;;;4954615;29;20224;-66
2022/11/25 04:14:49;;;;;;;5.78;3.40;;;2.00;85.80;;;;;;4955148;29;20197;-66
2022/11/25 04:17:17;;;;;;;7.43;5.18;;;1.90;85.90;;;;;;4955228;29;20200;-66
2022/11/25 04:19:45;;;;;;;11.23;7.50;;;1.80;86.00;;;;;;4954383;28;20675;-66
2022/11/25 04:22:12;;;;;;;8.20;5.30;;;1.70;86.10;;;;;;4955093;29;20201;-66
2022/11/25 04:24:39;;;;;;;7.20;5.45;;;1.70;86.40;;;;;;4954820;29;20208;-66
2022/11/25 04:27:07;;;;;;;5.75;4.63;;;1.60;86.60;;;;;;4954940;29;20222;-67
2022/11/25 04:29:34;;;;;;;10.75;4.95;;;1.60;86.70;;;;;;4953999;29;20194;-66
2022/11/25 04:32:01;;;;;;;6.65;4.00;;;1.70;86.90;;;;;;4954846;29;20284;-66
2022/11/25 04:34:28;;;;;;;6.35;4.03;;;1.70;86.90;;;;;;4954520;29;20196;-66
2022/11/25 04:36:58;;;;;;;4.40;3.55;;;1.70;86.50;;;;;;4955089;29;20289;-67
2022/11/25 04:39:26;;;;;;;6.78;3.55;;;1.70;86.70;;;;;;4954452;29;20653;-67
2022/11/25 04:42:30;;;;;;;3.90;2.30;;;1.80;87.00;;;;;;4954655;29;20196;-66
2022/11/25 04:44:40;;;;;;;4.82;2.47;;;1.80;86.90;;;;;;4954207;28;20607;-66
2022/11/25 04:47:07;;;;;;;9.18;3.17;;;1.80;87.20;;;;;;4954979;29;20303;-66
2022/11/25 04:49:35;;;;;;;10.00;5.40;;;1.80;87.40;;;;;;4954236;29;20197;-67
2022/11/25 04:52:04;;;;;;;6.97;5.03;;;1.90;87.80;;;;;;4935609;29;20190;-66
2022/11/25 04:54:31;;;;;;;9.77;4.72;;;1.90;87.80;;;;;;4943228;29;20186;-66
2022/11/25 04:56:58;;;;;;;8.48;4.00;;;1.90;87.50;;;;;;4954548;29;20202;-68
2022/11/25 04:59:41;;;;;;;7.22;4.32;;;1.90;87.40;;;;;;4954450;29;20190;-66
2022/11/25 05:02:14;;;;;;;7.07;4.55;;;1.90;87.30;;;;;;4935595;29;20601;-66
2022/11/25 05:04:42;;;;;;;3.95;2.55;;;1.90;87.70;;;;;;4935205;29;20261;-67
2022/11/25 05:07:11;;;;;;;6.00;1.90;;;1.90;88.40;;;;;;4935413;29;20253;-66
2022/11/25 05:09:39;;;;;;;5.50;2.50;;;1.90;88.40;;;;;;4935659;29;20194;-66
2022/11/25 05:12:07;;;;;;;3.35;1.90;;;1.90;88.40;;;;;;4935255;29;20653;-66
2022/11/25 05:14:35;;;;;;;4.40;2.45;;;1.90;88.70;;;;;;4935376;29;20205;-67
2022/11/25 05:17:03;;;;;;;5.13;2.08;;;2.00;88.30;;;;;;4953615;29;20189;-66
2022/11/25 05:19:30;;;;;;;4.35;1.92;;;1.90;88.30;;;;;;4954257;29;20225;-67
2022/11/25 05:21:58;;;;;;;3.58;1.60;;;1.90;88.10;;;;;;4954000;29;20712;-66
2022/11/25 05:24:27;;;;;;;6.22;2.92;;;1.80;87.90;;;;;;4954578;29;20284;-66
2022/11/25 05:26:54;;;;;;;3.35;2.13;;;1.80;88.10;;;;;;4953851;29;20575;-66
2022/11/25 05:29:22;;;;;;;4.85;2.90;;;1.80;88.20;;;;;;4954320;29;20206;-67
2022/11/25 05:31:49;;;;;;;4.00;2.65;;;1.80;87.90;;;;;;4953831;29;20272;-66
2022/11/25 05:34:16;;;;;;;4.18;2.53;;;1.80;88.20;;;;;;4954365;29;20198;-66
2022/11/25 05:36:43;;;;;;;4.57;2.22;;;1.80;89.60;;;;;;4953436;29;20192;-66
2022/11/25 05:39:10;;;;;;;3.45;2.03;;;1.80;88.70;;;;;;4954192;29;20285;-66
2022/11/25 05:41:39;;;;;;;2.72;1.73;;;1.80;88.60;;;;;;4953714;29;20186;-66
2022/11/25 05:44:06;;;;;;;3.33;2.08;;;1.80;88.50;;;;;;4954241;29;20197;-66
2022/11/25 05:46:34;;;;;;;2.92;1.73;;;1.80;88.80;;;;;;4953533;29;20228;-65
2022/11/25 05:49:01;;;;;;;3.55;2.58;;;1.90;89.10;;;;;;4954164;29;20232;-65
2022/11/25 05:51:30;;;;;;;6.72;3.20;;;1.90;89.00;;;;;;4954010;29;20597;-66
2022/11/25 05:53:57;;;;;;;3.92;2.85;;;2.00;88.80;;;;;;4953926;29;20653;-65
2022/11/25 05:56:24;;;;;;;4.57;3.15;;;2.00;88.90;;;;;;4953591;29;20250;-65
2022/11/25 05:58:54;;;;;;;5.00;3.45;;;2.10;88.70;;;;;;4953909;29;20280;-65
2022/11/25 06:01:22;;;;;;;4.85;3.28;;;2.20;88.80;;;;;;4953645;29;20237;-65
2022/11/25 06:03:49;;;;;;;4.35;3.10;;;2.20;88.60;;;;;;4952957;29;20213;-65
2022/11/25 06:06:16;;;;;;;4.50;2.92;;;2.20;87.90;;;;;;4953950;29;20194;-65
2022/11/25 06:08:44;;;;;;;6.20;4.22;;;2.10;87.30;;;;;;4953998;29;20198;-65
2022/11/25 06:11:13;;;;;;;10.20;4.50;;;2.10;86.80;;;;;;4953346;29;20200;-65
2022/11/25 06:13:42;;;;;;;4.38;3.35;;;2.10;86.90;;;;;;4953365;29;20186;-65
2022/11/25 06:16:13;;;;;;;4.55;2.38;;;2.00;87.00;;;;;;4953447;29;20600;-65
2022/11/25 06:18:41;;;;;;;3.95;2.20;;;2.00;87.20;;;;;;4954047;29;20224;-65
2022/11/25 06:21:09;;;;;;;4.45;2.50;;;2.00;86.50;;;;;;4953490;29;20196;-65
2022/11/25 06:23:37;;;;;;;7.60;2.63;;;2.00;86.50;;;;;;4952998;29;20205;-66
2022/11/25 06:26:07;;;;;;;19.75;10.27;;;2.10;86.80;;;;;;4953863;29;20202;-65
2022/11/25 06:28:34;;;;;;;41.70;25.38;;;2.10;87.10;;;;;;4953566;29;20248;-65
2022/11/25 06:31:06;;;;;;;34.78;22.67;;;2.20;87.10;;;;;;4953796;29;20212;-65
2022/11/25 06:33:35;;;;;;;31.83;20.60;;;2.20;87.20;;;;;;4954146;29;20193;-65
2022/11/25 06:36:03;;;;;;;21.67;12.45;;;2.30;86.90;;;;;;4950317;28;20664;-66
2022/11/25 06:38:31;;;;;;;41.22;17.08;;;2.30;87.10;;;;;;4952363;29;20657;-65
2022/11/25 06:41:00;;;;;;;28.20;13.93;;;2.30;87.50;;;;;;4953037;29;20205;-66
2022/11/25 06:43:27;;;;;;;28.60;13.63;;;2.40;87.00;;;;;;4943521;29;20221;-65
2022/11/25 06:45:55;;;;;;;23.20;9.82;;;2.40;86.50;;;;;;4956345;29;20186;-65
2022/11/25 06:48:22;;;;;;;13.52;7.43;;;2.40;87.00;;;;;;4956289;29;20213;-66
2022/11/25 06:50:58;;;;;;;12.70;6.80;;;2.40;87.10;;;;;;4956462;29;20224;-65
2022/11/25 06:53:26;;;;;;;12.02;7.45;;;2.40;87.00;;;;;;4955675;29;20193;-65
2022/11/25 06:56:06;;;;;;;14.15;7.63;;;2.40;86.60;;;;;;4955879;29;20740;-65
2022/11/25 06:58:34;;;;;;;12.35;5.43;;;2.40;86.40;;;;;;4955858;29;20566;-65
2022/11/25 07:01:06;;;;;;;7.95;5.03;;;2.40;86.20;;;;;;4955545;29;20193;-65
2022/11/25 07:03:34;;;;;;;48.45;23.60;;;2.40;85.80;;;;;;4956134;28;20229;-65
2022/11/25 07:06:03;;;;;;;11.43;7.55;;;2.30;85.90;;;;;;4955805;29;20198;-65
2022/11/25 07:08:35;;;;;;;18.95;9.27;;;2.30;86.20;;;;;;4955668;29;20280;-65
2022/11/25 07:11:04;;;;;;;48.30;22.13;;;2.40;86.60;;;;;;4953083;28;20204;-65
2022/11/25 07:13:31;;;;;;;54.75;25.05;;;2.40;86.60;;;;;;4953461;29;20645;-65
2022/11/25 07:16:01;;;;;;;73.50;35.05;;;2.50;86.70;;;;;;4954478;29;20200;-65
2022/11/25 07:18:30;;;;;;;50.40;25.42;;;2.50;86.50;;;;;;4954596;29;20205;-65
2022/11/25 07:21:05;;;;;;;40.55;20.85;;;2.50;86.40;;;;;;4947782;29;20676;-66
2022/11/25 07:23:33;;;;;;;32.90;19.15;;;2.50;86.40;;;;;;4953957;29;20256;-65
2022/11/25 07:26:06;;;;;;;28.33;17.05;;;2.50;86.60;;;;;;4954229;29;20268;-65
2022/11/25 07:28:34;;;;;;;31.52;18.23;;;2.60;86.60;;;;;;4952876;29;20217;-65
2022/11/25 07:31:08;;;;;;;26.50;16.20;;;2.60;86.40;;;;;;4953873;29;20200;-66
2022/11/25 07:33:36;;;;;;;22.20;12.20;;;2.60;86.60;;;;;;4954463;29;20193;-65
2022/11/25 07:36:07;;;;;;;13.80;7.80;;;2.60;86.50;;;;;;4948967;28;20578;-67
2022/11/25 07:38:36;;;;;;;8.75;6.03;;;2.70;86.20;;;;;;4952185;28;20195;-67
2022/11/25 07:41:07;;;;;;;15.82;8.75;;;2.60;86.20;;;;;;4950678;29;20212;-66
2022/11/25 07:43:35;;;;;;;41.60;25.73;;;2.70;86.90;;;;;;4953329;29;20672;-66
2022/11/25 07:46:11;;;;;;;32.65;21.17;;;2.80;86.90;;;;;;4951117;29;20178;-66
2022/11/25 07:48:39;;;;;;;21.70;13.50;;;2.90;87.50;;;;;;4952769;29;20221;-65
2022/11/25 07:51:14;;;;;;;16.45;10.93;;;3.00;87.70;;;;;;4955502;28;20293;-66
2022/11/25 07:53:41;;;;;;;13.75;9.02;;;3.10;87.40;;;;;;4952361;28;20201;-66
2022/11/25 07:56:09;;;;;;;11.48;8.32;;;3.20;86.70;;;;;;4953033;29;20225;-66
2022/11/25 07:58:36;;;;;;;14.88;6.93;;;3.30;86.50;;;;;;4955972;28;20198;-66
2022/11/25 08:01:04;;;;;;;8.63;5.72;;;3.40;86.10;;;;;;4952835;29;20200;-66
2022/11/25 08:03:32;;;;;;;9.00;5.57;;;3.50;86.30;;;;;;4952505;28;20204;-66
2022/11/25 08:06:01;;;;;;;9.18;4.90;;;3.50;85.70;;;;;;4952996;29;20240;-66
2022/11/25 08:08:30;;;;;;;11.05;7.35;;;3.60;85.10;;;;;;4952606;29;20276;-66
2022/11/25 08:10:57;;;;;;;10.80;6.78;;;3.70;84.20;;;;;;4952296;29;20225;-66
2022/11/25 08:13:24;;;;;;;15.82;8.80;;;3.70;83.40;;;;;;4954314;29;20201;-65
2022/11/25 08:15:51;;;;;;;18.35;8.70;;;3.70;83.30;;;;;;4954360;29;20280;-66
2022/11/25 08:18:18;;;;;;;10.75;7.15;;;3.70;83.50;;;;;;4954220;29;20543;-65
2022/11/25 08:20:45;;;;;;;10.88;7.07;;;3.80;83.80;;;;;;4953934;29;20198;-66
2022/11/25 08:23:12;;;;;;;15.30;8.93;;;3.90;83.50;;;;;;4954253;29;20253;-66
2022/11/25 08:25:42;;;;;;;19.42;11.65;;;4.20;82.80;;;;;;4953984;29;20221;-66
2022/11/25 08:28:09;;;;;;;17.48;10.45;;;4.40;81.40;;;;;;4954124;29;20230;-66
2022/11/25 08:30:36;;;;;;;31.98;18.58;;;4.60;82.80;;;;;;4953686;29;20246;-66
2022/11/25 08:33:06;;;;;;;21.75;13.52;;;5.00;82.60;;;;;;4953745;29;20194;-66
2022/11/25 08:35:36;;;;;;;17.30;11.95;;;5.20;81.60;;;;;;4954008;29;20202;-66
2022/11/25 08:38:04;;;;;;;18.77;11.52;;;5.40;80.40;;;;;;4953550;29;20196;-66
2022/11/25 08:40:31;;;;;;;14.48;9.55;;;5.50;79.60;;;;;;4950099;29;20256;-66
2022/11/25 08:43:00;;;;;;;51.75;28.60;;;5.60;78.60;;;;;;4953861;29;20602;-65
2022/11/25 08:45:27;;;;;;;66.93;34.08;;;5.70;78.90;;;;;;4953611;29;20653;-66
2022/11/25 08:47:54;;;;;;;93.22;45.20;;;5.80;77.10;;;;;;4953091;29;20253;-66
2022/11/25 08:50:23;;;;;;;90.53;47.30;;;5.90;77.10;;;;;;4953603;29;20194;-67
2022/11/25 08:52:50;;;;;;;93.55;47.90;;;6.10;76.90;;;;;;4953556;29;20640;-67
2022/11/25 08:55:17;;;;;;;67.50;36.10;;;6.10;76.50;;;;;;4953680;29;20695;-66
2022/11/25 08:57:44;;;;;;;16.00;10.80;;;6.30;76.70;;;;;;4953197;29;20193;-66
2022/11/25 09:00:14;;;;;;;10.43;6.55;;;6.30;76.90;;;;;;4953573;29;20205;-66
2022/11/25 09:02:41;;;;;;;12.68;5.05;;;6.40;76.30;;;;;;4953499;29;20289;-66
2022/11/25 09:05:11;;;;;;;5.57;3.67;;;6.50;76.50;;;;;;4952627;28;20230;-67
2022/11/25 09:07:38;;;;;;;7.07;4.13;;;6.50;75.40;;;;;;4949436;29;20225;-66
2022/11/25 09:10:06;;;;;;;9.60;5.53;;;6.50;75.50;;;;;;4952992;29;20261;-66
2022/11/25 09:12:33;;;;;;;7.40;5.28;;;6.50;75.50;;;;;;4953441;29;20200;-66
2022/11/25 09:15:00;;;;;;;5.70;3.42;;;6.60;75.50;;;;;;4953041;29;20198;-66
2022/11/25 09:17:28;;;;;;;6.72;4.05;;;6.80;75.90;;;;;;4953401;29;20248;-66
2022/11/25 09:19:55;;;;;;;4.95;3.63;;;6.90;75.40;;;;;;4953391;29;20201;-66
2022/11/25 09:22:22;;;;;;;11.43;8.18;;;7.10;74.50;;;;;;4953443;29;20197;-66
2022/11/25 09:24:50;;;;;;;13.25;8.88;;;7.20;73.80;;;;;;4952474;29;20657;-66
2022/11/25 09:27:16;;;;;;;11.68;8.05;;;7.30;73.90;;;;;;4953138;29;20532;-66
2022/11/25 09:29:43;;;;;;;9.90;7.80;;;7.40;73.30;;;;;;4953021;29;20241;-66
2022/11/25 09:32:10;;;;;;;12.38;6.70;;;7.60;73.70;;;;;;4953157;29;20535;-66
2022/11/25 09:34:39;;;;;;;10.77;8.23;;;7.80;71.80;;;;;;4952850;29;20253;-66
2022/11/25 09:37:06;;;;;;;8.55;6.93;;;8.20;72.90;;;;;;4953190;29;20194;-66
2022/11/25 09:39:34;;;;;;;10.18;9.15;;;8.70;70.30;;;;;;4953033;29;20201;-66
2022/11/25 09:48:15;;;;;;;7.07;5.65;;;11.20;60.50;;;;;;4952719;29;20276;-66
2022/11/25 09:50:58;;;;;;;13.30;7.47;;;12.10;58.10;;;;;;4952648;29;20194;-66
2022/11/25 09:53:38;;;;;;;18.80;9.07;;;12.70;58.80;;;;;;4951090;29;20198;-67
2022/11/25 09:56:12;;;;;;;16.80;12.77;;;13.50;56.30;;;;;;4952402;29;20201;-66
2022/11/25 09:58:46;;;;;;;14.57;10.10;;;14.30;52.20;;;;;;4952859;29;20444;-66
2022/11/25 10:01:17;;;;;;;19.50;14.07;;;14.90;52.50;;;;;;4948826;29;20545;-66
2022/11/25 10:03:47;;;;;;;30.63;19.70;;;15.70;51.70;;;;;;4952611;29;21140;-66
2022/11/25 10:06:19;;;;;;;30.57;21.90;;;16.30;48.50;;;;;;4952834;29;21069;-67
2022/11/25 10:08:49;;;;;;;23.13;16.13;;;16.90;48.30;;;;;;4952584;29;20493;-66
2022/11/25 10:11:27;;;;;;;39.37;25.70;;;17.50;47.50;;;;;;4953044;29;20504;-67
2022/11/25 10:13:59;;;;;;;56.20;36.80;;;18.10;44.90;;;;;;4948565;29;20500;-67
2022/11/25 10:16:34;;;;;;;30.03;20.10;;;18.40;40.90;;;;;;4952846;28;20453;-67
2022/11/25 10:19:05;;;;;;;25.97;16.90;;;18.80;42.50;;;;;;4955684;29;20449;-67
2022/11/25 10:21:34;;;;;;;13.60;9.77;;;19.20;40.50;;;;;;4956458;29;20448;-67
2022/11/25 10:24:02;;;;;;;12.80;11.57;;;19.40;38.20;;;;;;4956215;29;20520;-66
2022/11/25 10:26:35;;;;;;;15.03;10.63;;;19.80;39.30;;;;;;4955725;29;20979;-67
2022/11/25 10:29:21;;;;;;;12.50;10.00;;;20.30;38.30;;;;;;4955463;29;20543;-67
2022/11/25 10:31:51;;;;;;;6.73;4.80;;;20.60;36.80;;;;;;4956284;29;20483;-67
2022/11/25 10:34:27;;;;;;;6.83;5.53;;;20.90;34.10;;;;;;4956338;29;20521;-66
2022/11/25 10:36:58;;;;;;;10.30;6.10;;;21.10;34.80;;;;;;4955673;29;20464;-67
2022/11/25 10:39:30;;;;;;;10.20;6.90;;;21.50;32.70;;;;;;4955996;29;20867;-67
2022/11/25 10:42:02;;;;;;;11.83;7.43;;;21.60;33.50;;;;;;4956010;29;20436;-67
2022/11/25 10:44:30;;;;;;;8.90;6.03;;;21.70;33.60;;;;;;4956074;29;20441;-67
2022/11/25 10:47:12;;;;;;;8.10;5.23;;;21.90;33.80;;;;;;4955977;29;20445;-67
2022/11/25 10:49:50;;;;;;;9.23;4.23;;;22.30;34.40;;;;;;4956026;29;20465;-67
2022/11/25 10:52:22;;;;;;;7.20;5.20;;;22.60;32.80;;;;;;4955834;29;20492;-67
2022/11/25 10:54:56;;;;;;;8.43;4.97;;;22.90;31.10;;;;;;4955419;29;20477;-67
2022/11/25 10:57:28;;;;;;;5.30;4.20;;;22.90;30.00;;;;;;4955385;29;20449;-67
2022/11/25 10:59:58;;;;;;;6.03;4.67;;;22.90;31.30;;;;;;4955417;29;20445;-68
2022/11/25 11:02:27;;;;;;;7.17;4.60;;;23.00;30.40;;;;;;4951825;29;20445;-65
2022/11/25 11:04:58;;;;;;;5.50;3.60;;;22.70;31.10;;;;;;4955081;29;20465;-65
2022/11/25 11:07:29;;;;;;;5.07;3.63;;;22.50;30.00;;;;;;4954711;29;20465;-65
2022/11/25 11:10:18;;;;;;;5.90;3.50;;;22.80;30.80;;;;;;4951883;29;20445;-65
2022/11/25 11:12:56;;;;;;;3.80;2.63;;;23.00;29.00;;;;;;4955658;29;20476;-65
2022/11/25 11:15:25;;;;;;;4.60;2.03;;;22.50;29.10;;;;;;4955203;29;20441;-65
2022/11/25 11:17:53;;;;;;;4.77;2.50;;;22.40;28.20;;;;;;4955058;29;20504;-65
2022/11/25 11:20:23;;;;;;;6.07;2.60;;;22.30;28.60;;;;;;4955433;29;20445;-65
2022/11/25 11:22:57;;;;;;;3.00;2.07;;;22.30;28.80;;;;;;4954720;29;20448;-65
2022/11/25 11:25:32;;;;;;;2.60;1.70;;;22.70;29.60;;;;;;4955264;29;20936;-66
2022/11/25 11:28:00;;;;;;;3.47;1.70;;;23.10;27.70;;;;;;4954817;28;20532;-66
2022/11/25 11:30:30;;;;;;;4.97;1.57;;;23.50;28.90;;;;;;4954180;29;20469;-65
2022/11/25 11:33:03;;;;;;;3.57;1.90;;;23.90;26.80;;;;;;4951328;29;20437;-65
2022/11/25 11:35:43;;;;;;;4.97;1.87;;;23.60;26.40;;;;;;4954933;29;20442;-66
2022/11/25 11:38:23;;;;;;;7.57;2.20;;;23.50;27.60;;;;;;4953810;29;20504;-65
2022/11/25 11:40:55;;;;;;;6.30;1.87;;;23.90;26.70;;;;;;4954947;29;20442;-66
2022/11/25 11:43:47;;;;;;;4.07;2.10;;;24.40;28.00;;;;;;4954847;29;20832;-66
2022/11/25 11:46:43;;;;;;;3.80;1.90;;;24.70;27.50;;;;;;4954939;29;20509;-65
2022/11/25 11:49:34;;;;;;;4.73;1.83;;;25.10;27.20;;;;;;4942835;28;20501;-66
2022/11/25 11:52:08;;;;;;;2.63;1.50;;;25.30;25.90;;;;;;4954953;29;20501;-66
2022/11/25 11:54:43;;;;;;;3.57;1.27;;;25.30;25.70;;;;;;4954805;29;20472;-65
2022/11/25 11:57:19;;;;;;;6.43;1.53;;;25.20;25.00;;;;;;4950943;29;20453;-66
2022/11/25 11:59:48;;;;;;;6.10;1.30;;;25.00;25.30;;;;;;4954499;29;20445;-65
2022/11/25 12:02:40;;;;;;;3.10;1.30;;;24.90;26.20;;;;;;4954150;29;20489;-66
2022/11/25 12:05:16;;;;;;;4.60;1.40;;;25.10;26.70;;;;;;4953378;29;20496;-66
2022/11/25 12:07:53;;;;;;;5.53;2.67;;;25.10;25.90;;;;;;4953710;29;20456;-66
2022/11/25 12:10:27;;;;;;;6.20;2.80;;;24.50;25.40;;;;;;4951772;29;20492;-67
2022/11/25 12:13:00;;;;;;;5.57;2.23;;;24.50;26.80;;;;;;4952116;29;20496;-65
2022/11/25 12:15:37;;;;;;;6.90;2.10;;;24.50;26.10;;;;;;4953612;29;20445;-66
2022/11/25 12:18:13;;;;;;;5.87;1.50;;;24.10;26.80;;;;;;4950442;29;20560;-65
2022/11/25 12:20:47;;;;;;;3.03;1.10;;;24.20;27.10;;;;;;4953051;29;20449;-66
2022/11/25 12:23:21;;;;;;;5.50;1.37;;;24.20;27.10;;;;;;4953036;29;20468;-66
2022/11/25 12:25:54;;;;;;;3.50;1.60;;;24.20;27.20;;;;;;4953268;29;20505;-65
2022/11/25 12:28:28;;;;;;;4.57;1.77;;;24.00;27.30;;;;;;4949982;29;20516;-66
2022/11/25 12:31:03;;;;;;;6.20;1.40;;;23.90;27.70;;;;;;4953991;29;20447;-66
2022/11/25 12:33:41;;;;;;;2.20;0.90;;;23.70;27.70;;;;;;4953614;29;20441;-65
2022/11/25 12:36:13;;;;;;;3.13;1.00;;;23.50;27.60;;;;;;4952688;29;20970;-66
2022/11/25 12:38:45;;;;;;;5.23;1.67;;;23.40;28.20;;;;;;4950593;29;20517;-66
2022/11/25 12:41:21;;;;;;;3.63;1.40;;;23.30;28.40;;;;;;4953852;28;20524;-65
2022/11/25 12:43:59;;;;;;;3.87;1.00;;;23.00;28.50;;;;;;4953677;29;20476;-65
2022/11/25 12:46:33;;;;;;;12.47;1.40;;;22.90;28.70;;;;;;4953861;29;20477;-66
2022/11/25 12:49:01;;;;;;;3.03;1.37;;;22.80;28.90;;;;;;4953381;29;20486;-65
2022/11/25 12:51:51;;;;;;;4.87;1.37;;;22.70;29.20;;;;;;4953754;29;20468;-65
2022/11/25 12:54:33;;;;;;;4.77;1.17;;;22.50;29.10;;;;;;4947610;29;20932;-65
2022/11/25 12:57:22;;;;;;;5.33;1.40;;;21.90;29.10;;;;;;4953245;29;20503;-66
2022/11/25 13:00:04;;;;;;;6.03;1.47;;;21.40;29.90;;;;;;4953696;29;20452;-67
2022/11/25 13:03:07;;;;;;;4.53;1.80;;;20.80;30.30;;;;;;4953621;29;20449;-66
2022/11/25 13:06:15;;;;;;;3.47;1.50;;;20.20;31.20;;;;;;4950424;29;20832;-66
2022/11/25 13:08:59;;;;;;;4.57;1.70;;;19.70;32.00;;;;;;4931677;29;20490;-65
2022/11/25 13:11:50;;;;;;;5.50;1.47;;;19.50;32.70;;;;;;4951937;29;20442;-66
2022/11/25 13:14:27;;;;;;;4.23;1.30;;;19.40;33.00;;;;;;4940562;28;20468;-67
2022/11/25 13:16:55;;;;;;;5.20;1.13;;;19.20;33.60;;;;;;4950562;29;20472;-66
2022/11/25 13:19:23;;;;;;;5.33;1.33;;;19.00;33.90;;;;;;4952819;29;20448;-65